createdAt,value
2019-05-11T00:00:10.720Z,2.30
2019-05-11T00:02:47.082Z,2.60
2019-05-11T00:05:19.094Z,2.93
2019-05-11T00:07:51.855Z,3.50
2019-05-11T00:10:24.703Z,2.90
2019-05-11T00:12:59.303Z,2.93
2019-05-11T00:15:30.218Z,2.20
2019-05-11T00:18:02.447Z,2.67
2019-05-11T00:20:33.414Z,2.70
2019-05-11T00:23:05.317Z,2.97
2019-05-11T00:25:37.247Z,3.03
2019-05-11T00:28:14.989Z,2.93
2019-05-11T00:30:46.871Z,2.50
2019-05-11T00:33:19.738Z,3.00
2019-05-11T00:35:50.427Z,3.20
2019-05-11T00:38:22.418Z,2.73
2019-05-11T00:40:58.264Z,2.87
2019-05-11T00:43:31.354Z,2.20
2019-05-11T00:46:05.225Z,2.93
2019-05-11T00:48:42.135Z,2.97
2019-05-11T00:51:12.872Z,3.47
2019-05-11T00:53:46.263Z,3.40
2019-05-11T00:56:18.057Z,3.67
2019-05-11T00:58:51.016Z,3.73
2019-05-11T01:01:22.875Z,3.13
2019-05-11T01:04:00.518Z,2.70
2019-05-11T01:06:35.030Z,2.90
2019-05-11T01:09:08.068Z,2.70
2019-05-11T01:11:38.758Z,2.70
2019-05-11T01:14:09.644Z,2.37
2019-05-11T01:16:40.294Z,2.80
2019-05-11T01:19:14.324Z,2.60
2019-05-11T01:21:50.723Z,2.37
2019-05-11T01:24:21.822Z,2.43
2019-05-11T01:26:58.770Z,2.63
2019-05-11T01:29:29.580Z,2.50
2019-05-11T01:32:03.458Z,2.10
2019-05-11T01:34:36.352Z,2.03
2019-05-11T01:37:09.100Z,2.17
2019-05-11T01:39:45.496Z,2.43
2019-05-11T01:42:24.830Z,1.90
2019-05-11T01:44:57.972Z,1.77
2019-05-11T01:47:30.944Z,2.00
2019-05-11T01:50:07.896Z,1.87
2019-05-11T01:52:44.638Z,2.20
2019-05-11T01:55:15.248Z,2.00
2019-05-11T01:57:46.077Z,2.03
2019-05-11T02:00:22.139Z,2.30
2019-05-11T02:02:52.763Z,2.30
2019-05-11T02:05:30.463Z,2.27
2019-05-11T02:08:03.188Z,2.40
2019-05-11T02:10:34.128Z,2.30
2019-05-11T02:13:11.007Z,2.43
2019-05-11T02:15:48.724Z,2.43
2019-05-11T02:18:21.471Z,2.60
2019-05-11T02:20:58.877Z,3.00
2019-05-11T02:23:31.495Z,2.53
2019-05-11T02:26:08.477Z,2.33
2019-05-11T02:28:40.423Z,3.10
2019-05-11T02:31:12.393Z,2.60
2019-05-11T02:33:44.291Z,2.43
2019-05-11T02:36:15.106Z,2.57
2019-05-11T02:38:47.035Z,2.90
2019-05-11T02:41:35.447Z,3.00
2019-05-11T02:43:53.856Z,2.90
2019-05-11T02:46:27.180Z,2.60
2019-05-11T02:49:04.749Z,2.80
2019-05-11T02:51:37.206Z,2.27
2019-05-11T02:54:10.780Z,2.90
2019-05-11T02:56:41.582Z,2.80
2019-05-11T02:59:14.123Z,3.00
2019-05-11T03:01:50.513Z,2.80
2019-05-11T03:04:22.232Z,3.20
2019-05-11T03:07:00.771Z,3.10
2019-05-11T03:09:36.025Z,2.33
2019-05-11T03:12:08.728Z,2.70
2019-05-11T03:14:47.776Z,2.40
2019-05-11T03:17:22.449Z,2.23
2019-05-11T03:19:53.290Z,2.87
2019-05-11T03:22:32.137Z,2.50
2019-05-11T03:25:02.964Z,2.00
2019-05-11T03:27:35.711Z,2.77
2019-05-11T03:30:08.533Z,2.83
2019-05-11T03:32:48.219Z,2.10
2019-05-11T03:35:19.353Z,2.27
2019-05-11T03:37:56.673Z,2.07
2019-05-11T03:40:32.419Z,2.67
2019-05-11T03:43:06.358Z,2.07
2019-05-11T03:45:37.140Z,2.40
2019-05-11T03:48:09.077Z,1.80
2019-05-11T03:50:39.922Z,2.30
2019-05-11T03:53:16.640Z,2.50
2019-05-11T03:55:49.454Z,2.13
2019-05-11T03:58:25.505Z,2.27
2019-05-11T04:00:59.958Z,2.07
2019-05-11T04:03:31.898Z,2.07
2019-05-11T04:06:06.692Z,2.40
2019-05-11T04:08:37.493Z,1.70
2019-05-11T04:11:09.450Z,1.93
2019-05-11T04:13:47.129Z,1.67
2019-05-11T04:16:19.158Z,2.00
2019-05-11T04:18:51.032Z,1.43
2019-05-11T04:21:21.819Z,2.50
2019-05-11T04:23:52.497Z,22.70
2019-05-11T04:26:24.075Z,1.90
2019-05-11T04:28:54.845Z,1.90
2019-05-11T04:31:28.115Z,3.47
2019-05-11T04:33:58.799Z,3.37
2019-05-11T04:36:30.720Z,1.97
2019-05-11T04:39:01.418Z,1.73
2019-05-11T04:41:33.079Z,1.60
2019-05-11T04:44:04.893Z,1.60
2019-05-11T04:46:35.845Z,1.63
2019-05-11T04:49:07.646Z,1.83
2019-05-11T04:51:40.297Z,1.60
2019-05-11T04:54:11.168Z,1.73
2019-05-11T04:56:41.781Z,1.60
2019-05-11T04:59:12.383Z,2.00
2019-05-11T05:01:42.959Z,2.23
2019-05-11T05:04:14.562Z,2.00
2019-05-11T05:06:59.055Z,1.60
2019-05-11T05:09:18.517Z,1.67
2019-05-11T05:11:49.171Z,1.37
2019-05-11T05:14:19.752Z,1.37
2019-05-11T05:16:50.321Z,1.50
2019-05-11T05:19:20.839Z,1.80
2019-05-11T05:21:51.495Z,1.43
2019-05-11T05:24:22.017Z,1.30
2019-05-11T05:26:52.546Z,1.57
2019-05-11T05:29:23.077Z,1.70
2019-05-11T05:31:53.669Z,1.80
2019-05-11T05:34:24.259Z,1.27
2019-05-11T05:36:54.863Z,1.50
2019-05-11T05:39:25.412Z,1.27
2019-05-11T05:41:57.456Z,1.57
2019-05-11T05:44:28.682Z,1.70
2019-05-11T05:46:59.314Z,1.80
2019-05-11T05:49:31.936Z,1.87
2019-05-11T05:52:02.649Z,1.83
2019-05-11T05:54:33.207Z,1.67
2019-05-11T05:57:03.814Z,1.30
2019-05-11T05:59:34.421Z,1.60
2019-05-11T06:02:05.188Z,1.80
2019-05-11T06:04:35.802Z,1.70
2019-05-11T06:07:06.416Z,1.80
2019-05-11T06:09:37.004Z,1.50
2019-05-11T06:12:07.627Z,1.30
2019-05-11T06:14:38.155Z,1.30
2019-05-11T06:17:09.893Z,1.33
2019-05-11T06:19:40.474Z,1.80
2019-05-11T06:22:11.122Z,1.67
2019-05-11T06:24:41.684Z,1.37
2019-05-11T06:27:12.296Z,1.30
2019-05-11T06:29:43.066Z,1.50
2019-05-11T06:32:13.718Z,1.13
2019-05-11T06:34:44.311Z,1.23
2019-05-11T06:37:15.803Z,1.10
2019-05-11T06:39:46.459Z,1.30
2019-05-11T06:42:17.117Z,1.53
2019-05-11T06:44:50.138Z,1.23
2019-05-11T06:47:20.715Z,1.40
2019-05-11T06:49:51.314Z,1.20
2019-05-11T06:52:21.915Z,1.60
2019-05-11T06:54:52.525Z,1.63
2019-05-11T06:57:23.103Z,3.20
2019-05-11T06:59:53.768Z,1.67
2019-05-11T07:02:24.371Z,1.57
2019-05-11T07:04:54.934Z,2.00
2019-05-11T07:07:25.647Z,1.70
2019-05-11T07:09:56.202Z,1.90
2019-05-11T07:12:27.693Z,2.00
2019-05-11T07:14:58.737Z,2.03
2019-05-11T07:17:29.355Z,2.20
2019-05-11T07:19:59.915Z,1.70
2019-05-11T07:22:30.530Z,2.20
2019-05-11T07:25:01.092Z,1.90
2019-05-11T07:27:31.695Z,1.80
2019-05-11T07:30:02.397Z,2.20
2019-05-11T07:32:33.002Z,2.43
2019-05-11T07:35:03.568Z,1.67
2019-05-11T07:37:34.243Z,1.63
2019-05-11T07:40:05.040Z,1.20
2019-05-11T07:42:37.718Z,1.50
2019-05-11T07:45:09.205Z,1.37
2019-05-11T07:47:40.033Z,1.07
2019-05-11T07:50:10.803Z,1.93
2019-05-11T07:52:41.398Z,1.33
2019-05-11T07:55:11.999Z,1.50
2019-05-11T07:57:42.658Z,1.63
2019-05-11T08:00:18.646Z,1.30
2019-05-11T08:02:48.896Z,1.10
2019-05-11T08:05:19.628Z,1.20
2019-05-11T08:07:50.340Z,1.10
2019-05-11T08:10:20.947Z,1.40
2019-05-11T08:12:51.575Z,1.20
2019-05-11T08:15:22.473Z,1.00
2019-05-11T08:17:57.823Z,1.20
2019-05-11T08:20:28.494Z,1.10
2019-05-11T08:22:59.107Z,1.10
2019-05-11T08:25:29.732Z,1.20
2019-05-11T08:28:03.442Z,1.10
2019-05-11T08:30:34.070Z,1.00
2019-05-11T08:33:04.722Z,0.90
2019-05-11T08:35:35.255Z,1.40
2019-05-11T08:38:05.892Z,1.07
2019-05-11T08:40:37.909Z,1.00
2019-05-11T08:43:08.961Z,1.20
2019-05-11T08:45:39.532Z,0.90
2019-05-11T08:48:10.150Z,0.90
2019-05-11T08:50:40.763Z,0.80
2019-05-11T08:53:11.385Z,0.90
2019-05-11T08:55:41.986Z,1.50
2019-05-11T08:58:12.610Z,1.13
2019-05-11T09:00:43.256Z,0.93
2019-05-11T09:03:13.844Z,1.67
2019-05-11T09:05:44.439Z,0.90
2019-05-11T09:08:18.824Z,0.80
2019-05-11T09:10:49.758Z,1.63
2019-05-11T09:13:20.403Z,0.90
2019-05-11T09:15:50.992Z,0.80
2019-05-11T09:18:21.648Z,0.90
2019-05-11T09:20:52.211Z,0.80
2019-05-11T09:23:33.570Z,1.10
2019-05-11T09:25:55.194Z,0.87
2019-05-11T09:28:25.797Z,0.90
2019-05-11T09:30:57.783Z,0.80
2019-05-11T09:33:28.911Z,0.90
2019-05-11T09:35:59.504Z,0.80
2019-05-11T09:38:30.129Z,0.70
2019-05-11T09:41:00.712Z,0.80
2019-05-11T09:43:31.368Z,1.00
2019-05-11T09:46:01.974Z,0.80
2019-05-11T09:48:37.761Z,0.90
2019-05-11T09:51:08.110Z,1.50
2019-05-11T09:53:38.971Z,0.90
2019-05-11T09:56:09.603Z,0.80
2019-05-11T09:58:40.242Z,0.93
2019-05-11T10:01:10.827Z,0.80
2019-05-11T10:03:41.443Z,0.80
2019-05-11T10:06:12.041Z,0.83
2019-05-11T10:08:43.801Z,2.20
2019-05-11T10:11:14.386Z,1.50
2019-05-11T10:13:44.985Z,1.07
2019-05-11T10:16:17.756Z,1.17
2019-05-11T10:18:49.250Z,1.00
2019-05-11T10:21:20.210Z,1.03
2019-05-11T10:23:50.779Z,0.90
2019-05-11T10:26:21.384Z,0.80
2019-05-11T10:28:51.957Z,0.90
2019-05-11T10:31:22.578Z,1.13
2019-05-11T10:33:53.198Z,1.00
2019-05-11T10:36:23.777Z,1.03
2019-05-11T10:38:54.438Z,1.13
2019-05-11T10:41:25.026Z,1.00
2019-05-11T10:43:58.872Z,1.10
2019-05-11T10:46:29.482Z,1.50
2019-05-11T10:49:00.059Z,1.10
2019-05-11T10:51:30.648Z,1.13
2019-05-11T10:54:03.606Z,1.30
2019-05-11T10:56:34.234Z,1.20
2019-05-11T10:59:04.847Z,1.10
2019-05-11T11:01:37.840Z,0.80
2019-05-11T11:04:08.092Z,1.00
2019-05-11T11:06:38.864Z,1.20
2019-05-11T11:09:11.746Z,1.20
2019-05-11T11:11:42.301Z,1.10
2019-05-11T11:14:12.912Z,1.13
2019-05-11T11:16:43.505Z,1.20
2019-05-11T11:19:14.094Z,1.30
2019-05-11T11:21:44.683Z,1.37
2019-05-11T11:24:17.796Z,1.67
2019-05-11T11:26:48.606Z,1.73
2019-05-11T11:29:19.586Z,1.00
2019-05-11T11:31:50.133Z,1.20
2019-05-11T11:34:20.770Z,1.50
2019-05-11T11:36:51.293Z,1.37
2019-05-11T11:39:21.975Z,1.67
2019-05-11T11:41:52.519Z,1.03
2019-05-11T11:44:23.177Z,1.00
2019-05-11T11:46:55.314Z,1.40
2019-05-11T11:49:28.297Z,1.13
2019-05-11T11:51:58.607Z,1.20
2019-05-11T11:54:29.269Z,1.30
2019-05-11T11:56:59.874Z,1.20
2019-05-11T11:59:30.524Z,1.37
2019-05-11T12:02:02.791Z,1.50
2019-05-11T12:04:33.407Z,1.23
2019-05-11T12:07:04.029Z,0.90
2019-05-11T12:09:34.616Z,1.10
2019-05-11T12:12:05.284Z,1.10
2019-05-11T12:14:38.509Z,1.00
2019-05-11T12:17:11.169Z,1.10
2019-05-11T12:19:41.566Z,1.20
2019-05-11T12:22:12.175Z,1.10
2019-05-11T12:24:42.842Z,1.00
2019-05-11T12:27:13.424Z,1.10
2019-05-11T12:29:44.079Z,1.23
2019-05-11T12:32:21.243Z,1.10
2019-05-11T12:34:51.872Z,0.90
2019-05-11T12:37:22.453Z,1.10
2019-05-11T12:39:53.103Z,1.00
2019-05-11T12:42:23.716Z,1.00
2019-05-11T12:44:54.507Z,0.90
2019-05-11T12:47:25.344Z,1.20
2019-05-11T12:49:56.123Z,1.00
2019-05-11T12:52:28.021Z,1.10
2019-05-11T12:54:58.885Z,1.00
2019-05-11T12:57:29.458Z,1.17
2019-05-11T13:00:00.094Z,1.10
2019-05-11T13:02:30.683Z,1.27
2019-05-11T13:05:01.312Z,1.40
2019-05-11T13:07:31.875Z,1.40
2019-05-11T13:10:02.563Z,1.07
2019-05-11T13:12:33.086Z,1.10
2019-05-11T13:15:03.721Z,1.30
2019-05-11T13:17:37.798Z,1.00
2019-05-11T13:20:08.636Z,1.10
2019-05-11T13:22:39.785Z,1.73
2019-05-11T13:25:10.948Z,1.00
2019-05-11T13:27:41.603Z,1.00
2019-05-11T13:30:12.267Z,1.13
2019-05-11T13:32:42.845Z,1.07
2019-05-11T13:35:13.659Z,0.97
2019-05-11T13:37:44.225Z,0.97
2019-05-11T13:40:15.109Z,1.00
2019-05-11T13:42:45.646Z,1.07
2019-05-11T13:45:17.717Z,1.40
2019-05-11T13:47:55.363Z,1.10
2019-05-11T13:50:20.940Z,1.33
2019-05-11T13:52:51.455Z,1.27
2019-05-11T13:55:22.126Z,1.17
2019-05-11T13:57:52.725Z,1.10
2019-05-11T14:00:23.439Z,1.00
2019-05-11T14:02:55.617Z,1.13
2019-05-11T14:05:28.332Z,1.10
2019-05-11T14:07:58.815Z,1.23
2019-05-11T14:10:29.637Z,1.47
2019-05-11T14:13:00.254Z,1.30
2019-05-11T14:15:30.896Z,1.23
2019-05-11T14:18:08.244Z,1.30
2019-05-11T14:20:33.844Z,1.20
2019-05-11T14:23:04.446Z,1.43
2019-05-11T14:25:38.074Z,1.40
2019-05-11T14:28:09.056Z,1.43
2019-05-11T14:30:40.110Z,1.50
2019-05-11T14:33:12.479Z,1.33
2019-05-11T14:35:43.090Z,1.30
2019-05-11T14:38:13.667Z,1.60
2019-05-11T14:40:44.299Z,1.33
2019-05-11T14:43:18.749Z,1.40
2019-05-11T14:45:49.655Z,1.70
2019-05-11T14:48:26.294Z,1.63
2019-05-11T14:50:52.542Z,1.47
2019-05-11T14:53:23.190Z,1.70
2019-05-11T14:55:58.487Z,1.60
2019-05-11T14:58:29.016Z,1.63
2019-05-11T15:00:59.653Z,1.53
2019-05-11T15:03:30.258Z,1.40
2019-05-11T15:06:03.004Z,1.87
2019-05-11T15:08:38.550Z,1.67
2019-05-11T15:11:08.779Z,1.70
2019-05-11T15:13:39.302Z,2.30
2019-05-11T15:16:09.959Z,1.80
2019-05-11T15:18:42.204Z,2.57
2019-05-11T15:21:13.062Z,2.70
2019-05-11T15:23:43.645Z,2.53
2019-05-11T15:26:14.312Z,2.30
2019-05-11T15:28:44.904Z,2.93
2019-05-11T15:31:21.289Z,2.93
2019-05-11T15:33:48.863Z,3.33
2019-05-11T15:36:19.993Z,3.90
2019-05-11T15:38:53.448Z,3.40
2019-05-11T15:41:24.089Z,5.23
2019-05-11T15:43:54.710Z,5.97
2019-05-11T15:46:25.325Z,5.90
2019-05-11T15:49:02.628Z,5.97
2019-05-11T15:51:29.111Z,7.17
2019-05-11T15:54:00.036Z,7.10
2019-05-11T15:56:32.132Z,7.70
2019-05-11T15:59:02.697Z,8.07
2019-05-11T16:01:33.361Z,9.30
2019-05-11T16:04:03.952Z,9.53
2019-05-11T16:06:34.682Z,10.57
2019-05-11T16:09:08.260Z,10.67
2019-05-11T16:11:39.390Z,10.80
2019-05-11T16:14:12.519Z,10.83
2019-05-11T16:16:43.341Z,11.70
2019-05-11T16:19:15.487Z,10.37
2019-05-11T16:21:46.435Z,11.87
2019-05-11T16:24:20.418Z,12.07
2019-05-11T16:26:51.083Z,13.43
2019-05-11T16:29:39.896Z,12.53
2019-05-11T16:32:13.105Z,12.80
2019-05-11T16:35:14.468Z,13.50
2019-05-11T16:37:48.634Z,12.37
2019-05-11T16:40:20.732Z,11.00
2019-05-11T16:42:58.990Z,11.40
2019-05-11T16:45:29.907Z,13.47
2019-05-11T16:48:02.588Z,11.67
2019-05-11T16:50:38.355Z,9.47
2019-05-11T16:53:12.307Z,10.40
2019-05-11T16:55:43.037Z,11.77
2019-05-11T16:58:23.637Z,13.03
2019-05-11T17:00:54.301Z,11.37
2019-05-11T17:03:24.998Z,11.67
2019-05-11T17:05:55.619Z,12.70
2019-05-11T17:08:48.737Z,10.87
2019-05-11T17:11:19.647Z,11.37
2019-05-11T17:13:50.242Z,12.87
2019-05-11T17:16:28.495Z,10.20
2019-05-11T17:19:00.541Z,11.07
2019-05-11T17:21:31.363Z,11.17
2019-05-11T17:24:01.975Z,10.77
2019-05-11T17:26:32.948Z,10.60
2019-05-11T17:29:10.488Z,10.67
2019-05-11T17:31:41.154Z,11.67
2019-05-11T17:34:25.313Z,11.90
2019-05-11T17:36:57.903Z,11.30
2019-05-11T17:39:29.500Z,11.10
2019-05-11T17:42:00.133Z,11.70
2019-05-11T17:44:37.852Z,11.87
2019-05-11T17:47:10.396Z,10.30
2019-05-11T17:49:56.032Z,9.97
2019-05-11T17:52:13.607Z,10.33
2019-05-11T17:54:44.209Z,10.50
2019-05-11T17:57:14.916Z,10.03
2019-05-11T17:59:47.476Z,50.77
2019-05-11T18:02:18.217Z,11.30
2019-05-11T18:04:49.315Z,10.30
2019-05-11T18:07:27.603Z,10.00
2019-05-11T18:09:52.337Z,10.67
2019-05-11T18:12:22.967Z,10.00
2019-05-11T18:14:53.595Z,10.40
2019-05-11T18:17:25.465Z,10.37
2019-05-11T18:19:58.061Z,10.23
2019-05-11T18:22:28.637Z,11.33
2019-05-11T18:24:59.238Z,10.77
2019-05-11T18:27:29.908Z,9.57
2019-05-11T18:30:00.436Z,10.13
2019-05-11T18:32:31.087Z,11.17
2019-05-11T18:35:01.690Z,10.20
2019-05-11T18:37:32.266Z,10.43
2019-05-11T18:40:02.876Z,9.97
2019-05-11T18:42:33.545Z,10.83
2019-05-11T18:45:04.237Z,11.33
2019-05-11T18:47:34.920Z,10.53
2019-05-11T18:50:05.828Z,10.77
2019-05-11T18:52:36.610Z,10.60
2019-05-11T18:55:08.401Z,10.90
2019-05-11T18:57:39.136Z,11.33
2019-05-11T19:00:11.777Z,11.27
2019-05-11T19:02:42.385Z,10.60
2019-05-11T19:05:13.000Z,9.83
2019-05-11T19:07:43.638Z,9.93
2019-05-11T19:10:17.481Z,9.83
2019-05-11T19:12:51.083Z,10.90
2019-05-11T19:15:21.707Z,9.23
2019-05-11T19:17:52.300Z,9.83
2019-05-11T19:20:22.968Z,10.17
2019-05-11T19:22:53.565Z,9.30
2019-05-11T19:25:24.174Z,8.03
2019-05-11T19:27:54.851Z,9.10
2019-05-11T19:30:27.604Z,9.87
2019-05-11T19:32:59.038Z,10.33
2019-05-11T19:35:29.795Z,10.47
2019-05-11T19:38:00.340Z,10.67
2019-05-11T19:40:30.973Z,10.30
2019-05-11T19:43:01.583Z,9.47
2019-05-11T19:45:33.426Z,9.23
2019-05-11T19:48:04.027Z,10.13
2019-05-11T19:50:38.125Z,9.43
2019-05-11T19:53:09.688Z,9.67
2019-05-11T19:55:40.365Z,10.50
2019-05-11T19:58:10.957Z,10.50
2019-05-11T20:00:41.599Z,7.90
2019-05-11T20:03:13.667Z,9.77
2019-05-11T20:05:44.403Z,9.60
2019-05-11T20:08:15.061Z,10.23
2019-05-11T20:10:45.647Z,9.77
2019-05-11T20:13:17.956Z,8.90
2019-05-11T20:15:48.713Z,8.87
2019-05-11T20:18:21.334Z,10.10
2019-05-11T20:20:53.765Z,9.13
2019-05-11T20:23:24.367Z,9.27
2019-05-11T20:25:55.158Z,10.17
2019-05-11T20:28:25.765Z,9.17
2019-05-11T20:30:58.276Z,8.67
2019-05-11T20:33:30.107Z,9.10
2019-05-11T20:36:00.763Z,9.27
2019-05-11T20:38:34.336Z,8.73
2019-05-11T20:41:05.040Z,9.17
2019-05-11T20:43:35.621Z,8.77
2019-05-11T20:46:08.203Z,7.87
2019-05-11T20:48:38.478Z,8.40
2019-05-11T20:51:09.080Z,8.20
2019-05-11T20:53:39.652Z,8.73
2019-05-11T20:56:13.013Z,9.63
2019-05-11T20:58:59.259Z,8.87
2019-05-11T21:01:29.438Z,8.00
2019-05-11T21:04:00.080Z,8.20
2019-05-11T21:06:30.680Z,8.17
2019-05-11T21:09:01.335Z,8.33
2019-05-11T21:11:33.505Z,8.00
2019-05-11T21:14:04.128Z,8.63
2019-05-11T21:16:34.765Z,7.90
2019-05-11T21:19:05.346Z,9.03
2019-05-11T21:21:49.556Z,8.30
2019-05-11T21:24:08.574Z,8.37
2019-05-11T21:26:39.249Z,8.50
2019-05-11T21:29:11.565Z,8.63
2019-05-11T21:31:42.163Z,9.13
2019-05-11T21:34:15.463Z,8.70
2019-05-11T21:36:48.309Z,8.00
2019-05-11T21:39:18.388Z,8.30
2019-05-11T21:41:49.019Z,8.30
2019-05-11T21:44:19.673Z,8.20
2019-05-11T21:46:50.294Z,8.40
2019-05-11T21:49:20.854Z,9.10
2019-05-11T21:52:03.622Z,9.43
2019-05-11T21:54:23.765Z,8.87
2019-05-11T21:56:54.340Z,9.03
2019-05-11T21:59:27.805Z,9.63
2019-05-11T22:01:58.451Z,8.63
2019-05-11T22:04:29.031Z,9.37
2019-05-11T22:06:59.653Z,8.83
2019-05-11T22:09:30.271Z,9.50
2019-05-11T22:12:00.915Z,8.73
2019-05-11T22:14:31.440Z,10.63
2019-05-11T22:17:02.666Z,9.90
2019-05-11T22:19:33.309Z,10.33
2019-05-11T22:22:17.399Z,10.37
2019-05-11T22:24:37.479Z,10.20
2019-05-11T22:27:08.147Z,9.13
2019-05-11T22:29:38.745Z,9.67
2019-05-11T22:32:09.359Z,10.40
2019-05-11T22:34:39.945Z,9.33
2019-05-11T22:37:10.550Z,10.27
2019-05-11T22:39:41.071Z,10.70
2019-05-11T22:42:11.674Z,10.70
2019-05-11T22:44:42.360Z,9.80
2019-05-11T22:47:13.004Z,9.90
2019-05-11T22:49:43.554Z,9.17
2019-05-11T22:52:14.122Z,8.80
2019-05-11T22:54:44.723Z,8.90
2019-05-11T22:57:15.336Z,10.30
2019-05-11T22:59:45.907Z,9.90
2019-05-11T23:02:16.474Z,9.70
2019-05-11T23:04:48.505Z,9.57
2019-05-11T23:07:19.224Z,9.93
2019-05-11T23:09:49.798Z,9.53
2019-05-11T23:12:20.381Z,9.53
2019-05-11T23:15:08.929Z,9.00
2019-05-11T23:17:39.523Z,10.27
2019-05-11T23:20:12.016Z,8.13
2019-05-11T23:22:56.907Z,9.63
2019-05-11T23:25:20.737Z,8.77
2019-05-11T23:27:51.283Z,9.97
2019-05-11T23:30:21.946Z,8.73
2019-05-11T23:32:52.596Z,10.10
2019-05-11T23:35:23.479Z,8.63
2019-05-11T23:37:54.039Z,11.67
2019-05-11T23:40:24.973Z,9.77
2019-05-11T23:42:57.747Z,10.30
2019-05-11T23:45:28.232Z,9.47
2019-05-11T23:47:59.057Z,9.70
2019-05-11T23:50:29.572Z,10.03
2019-05-11T23:53:06.567Z,8.10
2019-05-11T23:55:35.337Z,9.27
2019-05-11T23:58:08.013Z,10.43
